sensor_id;sensor_type;location;lat;lon;timestamp;pressure;altitude;pressure_sealevel;temperature;humidity
60345;BME280;46188;52.324;8.032;2022-11-02T00:00:44;100395.19;;;12.27;77.54
60345;BME280;46188;52.324;8.032;2022-11-02T00:03:10;100398.69;;;12.24;77.89
60345;BME280;46188;52.324;8.032;2022-11-02T00:05:36;100386.38;;;12.34;77.44
60345;BME280;46188;52.324;8.032;2022-11-02T00:08:02;100393.38;;;12.19;78.08
60345;BME280;46188;52.324;8.032;2022-11-02T00:10:27;100394.28;;;12.26;78.25
60345;BME280;46188;52.324;8.032;2022-11-02T00:12:54;100391.66;;;12.22;79.24
60345;BME280;46188;52.324;8.032;2022-11-02T00:15:19;100388.94;;;12.11;80.91
60345;BME280;46188;52.324;8.032;2022-11-02T00:17:49;100392.50;;;12.17;81.03
60345;BME280;46188;52.324;8.032;2022-11-02T00:20:17;100383.69;;;12.17;81.71
60345;BME280;46188;52.324;8.032;2022-11-02T00:22:43;100389.84;;;12.13;81.91
60345;BME280;46188;52.324;8.032;2022-11-02T00:25:11;100377.47;;;12.01;83.17
60345;BME280;46188;52.324;8.032;2022-11-02T00:27:39;100373.94;;;11.99;84.01
60345;BME280;46188;52.324;8.032;2022-11-02T00:30:05;100381.88;;;12.00;84.18
60345;BME280;46188;52.324;8.032;2022-11-02T00:32:31;100368.69;;;12.02;83.96
60345;BME280;46188;52.324;8.032;2022-11-02T00:34:56;100384.53;;;12.05;83.77
60345;BME280;46188;52.324;8.032;2022-11-02T00:37:22;100379.25;;;12.11;83.56
60345;BME280;46188;52.324;8.032;2022-11-02T00:39:47;100371.34;;;12.14;83.91
60345;BME280;46188;52.324;8.032;2022-11-02T00:42:13;100368.72;;;12.16;83.54
60345;BME280;46188;52.324;8.032;2022-11-02T00:44:38;100366.00;;;11.96;86.48
60345;BME280;46188;52.324;8.032;2022-11-02T00:47:03;100368.66;;;11.96;88.23
60345;BME280;46188;52.324;8.032;2022-11-02T00:49:29;100359.78;;;11.88;88.84
60345;BME280;46188;52.324;8.032;2022-11-02T00:51:54;100360.66;;;11.88;90.15
60345;BME280;46188;52.324;8.032;2022-11-02T00:54:20;100362.41;;;11.88;90.79
60345;BME280;46188;52.324;8.032;2022-11-02T00:56:45;100366.81;;;11.82;92.22
60345;BME280;46188;52.324;8.032;2022-11-02T00:59:11;100360.63;;;11.79;93.70
60345;BME280;46188;52.324;8.032;2022-11-02T01:01:36;100354.47;;;11.78;93.98
60345;BME280;46188;52.324;8.032;2022-11-02T01:04:02;100350.94;;;11.79;93.89
60345;BME280;46188;52.324;8.032;2022-11-02T01:06:28;100347.41;;;11.76;95.20
60345;BME280;46188;52.324;8.032;2022-11-02T01:08:54;100340.34;;;11.70;95.67
60345;BME280;46188;52.324;8.032;2022-11-02T01:11:22;100346.53;;;11.81;94.83
60345;BME280;46188;52.324;8.032;2022-11-02T01:13:51;100348.34;;;11.87;94.69
60345;BME280;46188;52.324;8.032;2022-11-02T01:16:19;100367.69;;;11.83;94.92
60345;BME280;46188;52.324;8.032;2022-11-02T01:18:44;100358.03;;;11.87;94.43
60345;BME280;46188;52.324;8.032;2022-11-02T01:21:10;100349.19;;;11.85;94.65
60345;BME280;46188;52.324;8.032;2022-11-02T01:23:37;100345.69;;;11.86;94.21
60345;BME280;46188;52.324;8.032;2022-11-02T01:26:06;100349.16;;;11.71;95.25
60345;BME280;46188;52.324;8.032;2022-11-02T01:28:32;100343.03;;;11.81;94.36
60345;BME280;46188;52.324;8.032;2022-11-02T01:30:58;100343.91;;;11.85;94.31
60345;BME280;46188;52.324;8.032;2022-11-02T01:33:25;100342.97;;;11.73;95.59
60345;BME280;46188;52.324;8.032;2022-11-02T01:35:51;100338.59;;;11.71;96.07
60345;BME280;46188;52.324;8.032;2022-11-02T01:38:19;100331.53;;;11.71;96.40
60345;BME280;46188;52.324;8.032;2022-11-02T01:40:48;100327.16;;;11.72;97.27
60345;BME280;46188;52.324;8.032;2022-11-02T01:43:24;100329.78;;;11.67;98.04
60345;BME280;46188;52.324;8.032;2022-11-02T01:45:53;100327.16;;;11.72;97.71
60345;BME280;46188;52.324;8.032;2022-11-02T01:48:32;100335.06;;;11.76;97.61
60345;BME280;46188;52.324;8.032;2022-11-02T01:51:01;100330.63;;;11.66;98.78
60345;BME280;46188;52.324;8.032;2022-11-02T01:53:29;100324.50;;;11.76;98.04
60345;BME280;46188;52.324;8.032;2022-11-02T01:55:55;100320.13;;;11.77;98.04
60345;BME280;46188;52.324;8.032;2022-11-02T01:58:21;100317.47;;;11.81;97.75
60345;BME280;46188;52.324;8.032;2022-11-02T02:00:46;100318.38;;;11.77;98.19
60345;BME280;46188;52.324;8.032;2022-11-02T02:03:14;100321.00;;;11.77;98.41
60345;BME280;46188;52.324;8.032;2022-11-02T02:05:47;100317.50;;;11.78;98.22
60345;BME280;46188;52.324;8.032;2022-11-02T02:08:16;100316.59;;;11.75;98.14
60345;BME280;46188;52.324;8.032;2022-11-02T02:10:42;100313.06;;;11.76;98.25
60345;BME280;46188;52.324;8.032;2022-11-02T02:13:08;100310.41;;;11.71;98.79
60345;BME280;46188;52.324;8.032;2022-11-02T02:18:20;100301.63;;;11.69;98.75
60345;BME280;46188;52.324;8.032;2022-11-02T02:23:43;100307.75;;;11.63;98.31
60345;BME280;46188;52.324;8.032;2022-11-02T02:26:44;100303.38;;;11.67;97.94
60345;BME280;46188;52.324;8.032;2022-11-02T02:29:20;100299.84;;;11.63;97.38
60345;BME280;46188;52.324;8.032;2022-11-02T02:34:38;100298.09;;;11.67;97.08
60345;BME280;46188;52.324;8.032;2022-11-02T02:37:14;100293.66;;;11.61;97.38
60345;BME280;46188;52.324;8.032;2022-11-02T02:40:03;100292.75;;;11.56;97.29
60345;BME280;46188;52.324;8.032;2022-11-02T02:43:28;100285.72;;;11.58;97.24
60345;BME280;46188;52.324;8.032;2022-11-02T02:45:33;100292.81;;;11.66;96.76
60345;BME280;46188;52.324;8.032;2022-11-02T02:48:06;100291.03;;;11.66;96.52
60345;BME280;46188;52.324;8.032;2022-11-02T02:50:39;100277.84;;;11.68;95.70
60345;BME280;46188;52.324;8.032;2022-11-02T02:53:07;100285.72;;;11.63;96.48
60345;BME280;46188;52.324;8.032;2022-11-02T02:55:39;100282.22;;;11.64;96.39
60345;BME280;46188;52.324;8.032;2022-11-02T02:58:06;100284.00;;;11.68;95.88
60345;BME280;46188;52.324;8.032;2022-11-02T03:00:36;100289.28;;;11.70;95.59
60345;BME280;46188;52.324;8.032;2022-11-02T03:03:03;100297.19;;;11.70;95.73
60345;BME280;46188;52.324;8.032;2022-11-02T03:05:34;100299.84;;;11.70;95.90
60345;BME280;46188;52.324;8.032;2022-11-02T03:08:06;100292.81;;;11.67;96.24
60345;BME280;46188;52.324;8.032;2022-11-02T03:14:03;100288.44;;;11.74;95.48
60345;BME280;46188;52.324;8.032;2022-11-02T03:16:20;100295.47;;;11.78;95.07
60345;BME280;46188;52.324;8.032;2022-11-02T03:19:08;100294.59;;;11.74;95.54
60345;BME280;46188;52.324;8.032;2022-11-02T03:21:43;100298.97;;;11.69;95.68
60345;BME280;46188;52.324;8.032;2022-11-02T03:35:18;100312.13;;;11.63;96.04
60345;BME280;46188;52.324;8.032;2022-11-02T03:38:13;100319.19;;;11.64;95.73
60345;BME280;46188;52.324;8.032;2022-11-02T03:40:44;100315.69;;;11.65;95.30
60345;BME280;46188;52.324;8.032;2022-11-02T03:43:12;100313.06;;;11.65;95.20
60345;BME280;46188;52.324;8.032;2022-11-02T03:45:51;100337.66;;;11.62;95.25
60345;BME280;46188;52.324;8.032;2022-11-02T03:48:21;100324.44;;;11.59;95.28
60345;BME280;46188;52.324;8.032;2022-11-02T03:50:49;100315.69;;;11.62;94.83
60345;BME280;46188;52.324;8.032;2022-11-02T03:55:52;100327.06;;;11.56;94.77
60345;BME280;46188;52.324;8.032;2022-11-02T03:58:18;100335.00;;;11.58;94.65
60345;BME280;46188;52.324;8.032;2022-11-02T04:00:51;100336.72;;;11.48;94.28
60345;BME280;46188;52.324;8.032;2022-11-02T04:03:19;100329.72;;;11.58;93.66
60345;BME280;46188;52.324;8.032;2022-11-02T04:05:46;100325.31;;;11.54;93.85
60345;BME280;46188;52.324;8.032;2022-11-02T04:08:14;100334.06;;;11.48;93.45
60345;BME280;46188;52.324;8.032;2022-11-02T04:10:48;100329.72;;;11.50;92.82
60345;BME280;46188;52.324;8.032;2022-11-02T04:13:32;100345.53;;;11.52;92.42
60345;BME280;46188;52.324;8.032;2022-11-02T04:16:16;100347.31;;;11.53;91.39
60345;BME280;46188;52.324;8.032;2022-11-02T04:18:42;100342.06;;;11.59;90.67
60345;BME280;46188;52.324;8.032;2022-11-02T04:21:26;100343.84;;;11.66;90.15
60345;BME280;46188;52.324;8.032;2022-11-02T04:23:52;100352.66;;;11.68;89.55
60345;BME280;46188;52.324;8.032;2022-11-02T04:26:36;100350.91;;;11.67;89.30
60345;BME280;46188;52.324;8.032;2022-11-02T04:29:02;100335.91;;;11.66;89.42
60345;BME280;46188;52.324;8.032;2022-11-02T04:31:27;100350.00;;;11.60;90.16
60345;BME280;46188;52.324;8.032;2022-11-02T04:33:52;100351.78;;;11.68;90.08
60345;BME280;46188;52.324;8.032;2022-11-02T04:36:18;100356.16;;;11.64;90.06
60345;BME280;46188;52.324;8.032;2022-11-02T04:38:43;100359.69;;;11.66;90.76
60345;BME280;46188;52.324;8.032;2022-11-02T04:41:14;100355.31;;;11.65;90.64
60345;BME280;46188;52.324;8.032;2022-11-02T04:43:59;100357.09;;;11.74;91.05
60345;BME280;46188;52.324;8.032;2022-11-02T04:46:26;100365.88;;;11.65;92.39
60345;BME280;46188;52.324;8.032;2022-11-02T04:48:53;100368.53;;;11.77;91.85
60345;BME280;46188;52.324;8.032;2022-11-02T04:51:19;100368.56;;;11.79;92.39
60345;BME280;46188;52.324;8.032;2022-11-02T04:53:48;100366.75;;;11.73;92.97
60345;BME280;46188;52.324;8.032;2022-11-02T04:56:14;100370.25;;;11.69;93.16
60345;BME280;46188;52.324;8.032;2022-11-02T04:58:40;100379.03;;;11.67;93.99
60345;BME280;46188;52.324;8.032;2022-11-02T05:01:06;100363.22;;;11.65;94.25
60345;BME280;46188;52.324;8.032;2022-11-02T05:03:33;100376.44;;;11.65;94.88
60345;BME280;46188;52.324;8.032;2022-11-02T05:05:58;100367.59;;;11.64;94.81
60345;BME280;46188;52.324;8.032;2022-11-02T05:08:24;100375.50;;;11.60;95.39
60345;BME280;46188;52.324;8.032;2022-11-02T05:10:53;100374.66;;;11.64;95.05
60345;BME280;46188;52.324;8.032;2022-11-02T05:13:19;100361.44;;;11.62;94.89
60345;BME280;46188;52.324;8.032;2022-11-02T05:15:44;100366.69;;;11.61;95.08
60345;BME280;46188;52.324;8.032;2022-11-02T05:18:10;100359.66;;;11.60;94.53
60345;BME280;46188;52.324;8.032;2022-11-02T05:20:35;100368.41;;;11.50;94.94
60345;BME280;46188;52.324;8.032;2022-11-02T05:23:00;100366.66;;;11.56;95.11
60345;BME280;46188;52.324;8.032;2022-11-02T05:25:26;100371.16;;;11.65;94.76
60345;BME280;46188;52.324;8.032;2022-11-02T05:27:51;100370.22;;;11.63;94.70
60345;BME280;46188;52.324;8.032;2022-11-02T05:30:17;100363.19;;;11.59;94.18
60345;BME280;46188;52.324;8.032;2022-11-02T05:32:42;100370.22;;;11.57;94.15
60345;BME280;46188;52.324;8.032;2022-11-02T05:35:08;100367.56;;;11.55;93.79
60345;BME280;46188;52.324;8.032;2022-11-02T05:37:33;100378.97;;;11.51;94.61
60345;BME280;46188;52.324;8.032;2022-11-02T05:39:58;100379.00;;;11.54;94.29
60345;BME280;46188;52.324;8.032;2022-11-02T05:42:24;100374.59;;;11.56;93.96
60345;BME280;46188;52.324;8.032;2022-11-02T05:44:52;100377.25;;;11.59;93.49
60345;BME280;46188;52.324;8.032;2022-11-02T05:47:18;100395.72;;;11.58;93.70
60345;BME280;46188;52.324;8.032;2022-11-02T05:49:43;100380.78;;;11.63;92.94
60345;BME280;46188;52.324;8.032;2022-11-02T05:52:08;100386.09;;;11.66;92.55
60345;BME280;46188;52.324;8.032;2022-11-02T05:54:34;100407.22;;;11.69;92.26
60345;BME280;46188;52.324;8.032;2022-11-02T05:56:59;100387.91;;;11.76;91.28
60345;BME280;46188;52.324;8.032;2022-11-02T05:59:25;100412.59;;;11.85;90.97
60345;BME280;46188;52.324;8.032;2022-11-02T06:01:50;100412.59;;;11.88;90.21
60345;BME280;46188;52.324;8.032;2022-11-02T06:04:15;100429.34;;;11.87;90.34
60345;BME280;46188;52.324;8.032;2022-11-02T06:06:41;100428.44;;;11.88;89.88
60345;BME280;46188;52.324;8.032;2022-11-02T06:09:07;100434.63;;;11.87;90.08
60345;BME280;46188;52.324;8.032;2022-11-02T06:11:33;100444.31;;;11.89;89.06
60345;BME280;46188;52.324;8.032;2022-11-02T06:13:58;100444.38;;;11.92;88.58
60345;BME280;46188;52.324;8.032;2022-11-02T06:16:23;100447.88;;;11.93;88.04
60345;BME280;46188;52.324;8.032;2022-11-02T06:18:49;100440.84;;;11.93;88.04
60345;BME280;46188;52.324;8.032;2022-11-02T06:21:15;100436.41;;;11.91;87.82
60345;BME280;46188;52.324;8.032;2022-11-02T06:23:41;100452.22;;;11.88;88.04
60345;BME280;46188;52.324;8.032;2022-11-02T06:26:08;100442.53;;;11.90;87.47
60345;BME280;46188;52.324;8.032;2022-11-02T06:28:37;100439.00;;;11.83;88.07
60345;BME280;46188;52.324;8.032;2022-11-02T06:31:02;100451.31;;;11.81;87.54
60345;BME280;46188;52.324;8.032;2022-11-02T06:33:27;100439.84;;;11.77;87.88
60345;BME280;46188;52.324;8.032;2022-11-02T06:35:54;100442.44;;;11.71;87.80
60345;BME280;46188;52.324;8.032;2022-11-02T06:38:20;100438.06;;;11.75;87.56
60345;BME280;46188;52.324;8.032;2022-11-02T06:40:56;100437.16;;;11.70;87.26
60345;BME280;46188;52.324;8.032;2022-11-02T06:43:21;100460.06;;;11.71;86.74
60345;BME280;46188;52.324;8.032;2022-11-02T06:45:47;100455.66;;;11.73;86.37
60345;BME280;46188;52.324;8.032;2022-11-02T06:48:12;100472.41;;;11.76;86.55
60345;BME280;46188;52.324;8.032;2022-11-02T06:50:38;100475.03;;;11.70;86.74
60345;BME280;46188;52.324;8.032;2022-11-02T06:53:03;100468.94;;;11.80;86.61
60345;BME280;46188;52.324;8.032;2022-11-02T06:55:29;100473.34;;;11.88;86.09
60345;BME280;46188;52.324;8.032;2022-11-02T06:57:54;100479.56;;;11.91;84.73
60345;BME280;46188;52.324;8.032;2022-11-02T07:00:20;100486.56;;;11.88;85.58
60345;BME280;46188;52.324;8.032;2022-11-02T07:02:45;100493.56;;;11.79;85.86
60345;BME280;46188;52.324;8.032;2022-11-02T07:05:11;100494.47;;;11.85;85.39
60345;BME280;46188;52.324;8.032;2022-11-02T07:07:37;100499.78;;;11.91;84.99
60345;BME280;46188;52.324;8.032;2022-11-02T07:10:03;100506.81;;;11.87;85.01
60345;BME280;46188;52.324;8.032;2022-11-02T07:12:31;100503.28;;;11.90;84.78
60345;BME280;46188;52.324;8.032;2022-11-02T07:14:57;100508.63;;;11.93;84.73
60345;BME280;46188;52.324;8.032;2022-11-02T07:17:22;100510.34;;;11.91;84.57
60345;BME280;46188;52.324;8.032;2022-11-02T07:19:48;100514.78;;;11.90;84.57
60345;BME280;46188;52.324;8.032;2022-11-02T07:22:13;100535.06;;;11.94;84.00
60345;BME280;46188;52.324;8.032;2022-11-02T07:24:38;100513.94;;;11.94;83.50
60345;BME280;46188;52.324;8.032;2022-11-02T07:27:04;100522.75;;;11.95;83.53
60345;BME280;46188;52.324;8.032;2022-11-02T07:29:29;100534.22;;;11.97;83.96
60345;BME280;46188;52.324;8.032;2022-11-02T07:31:54;100550.03;;;11.94;83.71
60345;BME280;46188;52.324;8.032;2022-11-02T07:34:20;100539.41;;;11.88;84.05
60345;BME280;46188;52.324;8.032;2022-11-02T07:36:45;100550.84;;;11.90;83.66
60345;BME280;46188;52.324;8.032;2022-11-02T07:39:11;100538.53;;;11.87;84.09
60345;BME280;46188;52.324;8.032;2022-11-02T07:41:36;100564.94;;;11.89;84.02
60345;BME280;46188;52.324;8.032;2022-11-02T07:44:01;100558.78;;;11.87;83.90
60345;BME280;46188;52.324;8.032;2022-11-02T07:46:27;100557.00;;;11.86;84.40
60345;BME280;46188;52.324;8.032;2022-11-02T07:48:52;100571.06;;;11.86;83.88
60345;BME280;46188;52.324;8.032;2022-11-02T07:51:18;100557.09;;;11.93;83.79
60345;BME280;46188;52.324;8.032;2022-11-02T07:53:43;100570.31;;;11.95;83.78
60345;BME280;46188;52.324;8.032;2022-11-02T07:56:09;100565.81;;;11.88;83.48
60345;BME280;46188;52.324;8.032;2022-11-02T07:58:35;100581.72;;;11.92;83.48
60345;BME280;46188;52.324;8.032;2022-11-02T08:01:01;100578.22;;;11.98;83.32
60345;BME280;46188;52.324;8.032;2022-11-02T08:03:27;100585.28;;;11.96;83.60
60345;BME280;46188;52.324;8.032;2022-11-02T08:05:53;100580.88;;;11.99;83.18
60345;BME280;46188;52.324;8.032;2022-11-02T08:08:23;100599.38;;;11.98;83.38
60345;BME280;46188;52.324;8.032;2022-11-02T08:10:50;100602.94;;;12.00;83.13
60345;BME280;46188;52.324;8.032;2022-11-02T08:13:21;100591.50;;;12.03;82.51
60345;BME280;46188;52.324;8.032;2022-11-02T08:15:51;100601.22;;;12.08;82.99
60345;BME280;46188;52.324;8.032;2022-11-02T08:18:22;100602.00;;;11.98;82.47
60345;BME280;46188;52.324;8.032;2022-11-02T08:20:48;100596.75;;;11.95;82.78
60345;BME280;46188;52.324;8.032;2022-11-02T08:23:15;100608.22;;;12.00;82.62
60345;BME280;46188;52.324;8.032;2022-11-02T08:25:42;100610.88;;;12.05;82.86
60345;BME280;46188;52.324;8.032;2022-11-02T08:28:15;100615.28;;;12.06;81.93
60345;BME280;46188;52.324;8.032;2022-11-02T08:30:41;100634.63;;;12.00;81.37
60345;BME280;46188;52.324;8.032;2022-11-02T08:33:09;100610.88;;;12.00;81.87
60345;BME280;46188;52.324;8.032;2022-11-02T08:35:38;100629.38;;;12.05;80.98
60345;BME280;46188;52.324;8.032;2022-11-02T08:38:04;100617.94;;;12.06;80.63
60345;BME280;46188;52.324;8.032;2022-11-02T08:40:30;100640.84;;;12.05;80.79
60345;BME280;46188;52.324;8.032;2022-11-02T08:42:57;100641.81;;;12.16;80.74
60345;BME280;46188;52.324;8.032;2022-11-02T08:45:22;100644.56;;;12.33;79.77
60345;BME280;46188;52.324;8.032;2022-11-02T08:47:48;100644.56;;;12.32;80.05
60345;BME280;46188;52.324;8.032;2022-11-02T08:50:13;100650.66;;;12.28;80.41
60345;BME280;46188;52.324;8.032;2022-11-02T08:52:41;100641.78;;;12.18;80.47
60345;BME280;46188;52.324;8.032;2022-11-02T08:55:07;100647.66;;;13.31;77.55
60345;BME280;46188;52.324;8.032;2022-11-02T08:57:32;100652.75;;;12.80;77.61
60345;BME280;46188;52.324;8.032;2022-11-02T08:59:57;100663.31;;;12.75;78.05
60345;BME280;46188;52.324;8.032;2022-11-02T09:02:23;100647.56;;;13.12;77.25
60345;BME280;46188;52.324;8.032;2022-11-02T09:04:48;100650.22;;;13.03;77.18
60345;BME280;46188;52.324;8.032;2022-11-02T09:07:14;100665.22;;;13.10;76.80
60345;BME280;46188;52.324;8.032;2022-11-02T09:09:39;100662.44;;;12.82;77.52
60345;BME280;46188;52.324;8.032;2022-11-02T09:12:08;100664.47;;;13.40;75.63
60345;BME280;46188;52.324;8.032;2022-11-02T09:14:34;100675.75;;;12.93;76.64
60345;BME280;46188;52.324;8.032;2022-11-02T09:16:59;100679.25;;;12.84;76.85
60345;BME280;46188;52.324;8.032;2022-11-02T09:19:27;100676.50;;;12.70;76.92
60345;BME280;46188;52.324;8.032;2022-11-02T09:21:52;100691.56;;;12.85;76.42
60345;BME280;46188;52.324;8.032;2022-11-02T09:24:18;100676.41;;;12.53;76.77
60345;BME280;46188;52.324;8.032;2022-11-02T09:26:43;100704.78;;;12.82;75.87
60345;BME280;46188;52.324;8.032;2022-11-02T09:29:08;100694.56;;;14.53;69.90
60345;BME280;46188;52.324;8.032;2022-11-02T09:31:34;100682.63;;;18.06;59.50
60345;BME280;46188;52.324;8.032;2022-11-02T09:33:59;100692.03;;;17.73;56.17
60345;BME280;46188;52.324;8.032;2022-11-02T09:36:25;100695.69;;;18.23;56.51
60345;BME280;46188;52.324;8.032;2022-11-02T09:38:50;100693.88;;;16.08;60.56
60345;BME280;46188;52.324;8.032;2022-11-02T09:41:49;100706.03;;;14.54;64.18
60345;BME280;46188;52.324;8.032;2022-11-02T09:44:29;100708.69;;;13.80;67.55
60345;BME280;46188;52.324;8.032;2022-11-02T09:47:01;100705.13;;;17.89;58.98
60345;BME280;46188;52.324;8.032;2022-11-02T09:49:28;100718.16;;;19.92;51.03
60345;BME280;46188;52.324;8.032;2022-11-02T09:51:57;100713.75;;;16.63;55.55
60345;BME280;46188;52.324;8.032;2022-11-02T09:54:29;100730.78;;;14.76;60.99
60345;BME280;46188;52.324;8.032;2022-11-02T09:56:59;100725.47;;;14.82;62.38
60345;BME280;46188;52.324;8.032;2022-11-02T09:59:27;100730.38;;;17.61;55.36
60345;BME280;46188;52.324;8.032;2022-11-02T10:10:53;100747.41;;;18.16;53.78
60345;BME280;46188;52.324;8.032;2022-11-02T10:13:40;100733.13;;;20.37;48.83
60345;BME280;46188;52.324;8.032;2022-11-02T10:16:12;100730.47;;;22.22;44.66
60345;BME280;46188;52.324;8.032;2022-11-02T10:18:40;100755.72;;;19.02;47.95
60345;BME280;46188;52.324;8.032;2022-11-02T10:23:47;100765.94;;;15.57;57.20
60345;BME280;46188;52.324;8.032;2022-11-02T10:26:41;100757.34;;;16.52;54.86
60345;BME280;46188;52.324;8.032;2022-11-02T10:29:25;100757.00;;;17.64;52.00
60345;BME280;46188;52.324;8.032;2022-11-02T10:31:54;100775.03;;;17.45;51.88
60345;BME280;46188;52.324;8.032;2022-11-02T10:34:24;100760.25;;;16.21;54.30
60345;BME280;46188;52.324;8.032;2022-11-02T10:50:47;100782.03;;;15.17;57.67
60345;BME280;46188;52.324;8.032;2022-11-02T10:53:18;100795.94;;;15.80;56.34
60345;BME280;46188;52.324;8.032;2022-11-02T10:55:56;100802.41;;;14.99;58.09
60345;BME280;46188;52.324;8.032;2022-11-02T10:58:26;100804.81;;;15.85;55.94
60345;BME280;46188;52.324;8.032;2022-11-02T11:01:03;100809.78;;;16.35;54.16
60345;BME280;46188;52.324;8.032;2022-11-02T11:03:28;100824.22;;;16.00;54.50
60345;BME280;46188;52.324;8.032;2022-11-02T11:05:57;100821.00;;;15.05;56.81
60345;BME280;46188;52.324;8.032;2022-11-02T11:08:41;100826.31;;;15.07;57.59
60345;BME280;46188;52.324;8.032;2022-11-02T11:11:18;100821.72;;;15.61;55.76
60345;BME280;46188;52.324;8.032;2022-11-02T11:13:56;100834.16;;;15.50;55.70
60345;BME280;46188;52.324;8.032;2022-11-02T11:16:35;100846.63;;;15.12;56.27
60345;BME280;46188;52.324;8.032;2022-11-02T11:19:04;100844.84;;;15.36;56.28
60345;BME280;46188;52.324;8.032;2022-11-02T11:21:38;100850.06;;;15.62;55.53
60345;BME280;46188;52.324;8.032;2022-11-02T11:26:43;100825.97;;;16.07;54.98
60345;BME280;46188;52.324;8.032;2022-11-02T11:29:20;100825.88;;;16.19;54.27
60345;BME280;46188;52.324;8.032;2022-11-02T11:31:46;100837.69;;;15.50;55.36
60345;BME280;46188;52.324;8.032;2022-11-02T11:34:22;100830.75;;;14.75;57.56
60345;BME280;46188;52.324;8.032;2022-11-02T11:36:49;100827.19;;;15.13;57.25
60345;BME280;46188;52.324;8.032;2022-11-02T11:39:29;100833.31;;;15.39;56.76
60345;BME280;46188;52.324;8.032;2022-11-02T11:41:56;100831.56;;;15.30;56.50
60345;BME280;46188;52.324;8.032;2022-11-02T11:44:22;100829.81;;;15.26;56.59
60345;BME280;46188;52.324;8.032;2022-11-02T11:46:50;100837.53;;;15.97;55.78
60345;BME280;46188;52.324;8.032;2022-11-02T11:51:53;100811.91;;;17.79;50.73
60345;BME280;46188;52.324;8.032;2022-11-02T11:54:30;100832.97;;;18.00;48.60
60345;BME280;46188;52.324;8.032;2022-11-02T11:57:21;100828.66;;;17.14;49.51
60345;BME280;46188;52.324;8.032;2022-11-02T11:59:49;100825.19;;;17.06;50.29
60345;BME280;46188;52.324;8.032;2022-11-02T12:02:33;100808.50;;;16.88;50.57
60345;BME280;46188;52.324;8.032;2022-11-02T12:05:15;100821.19;;;16.55;51.69
60345;BME280;46188;52.324;8.032;2022-11-02T12:10:41;100830.66;;;16.93;51.30
60345;BME280;46188;52.324;8.032;2022-11-02T12:19:11;100842.56;;;16.43;52.24
60345;BME280;46188;52.324;8.032;2022-11-02T12:21:52;100839.06;;;16.33;51.86
60345;BME280;46188;52.324;8.032;2022-11-02T12:27:10;100830.97;;;16.53;50.85
60345;BME280;46188;52.324;8.032;2022-11-02T12:30:14;100836.31;;;16.50;50.65
60345;BME280;46188;52.324;8.032;2022-11-02T12:41:06;100836.47;;;16.29;50.29
60345;BME280;46188;52.324;8.032;2022-11-02T12:43:41;100836.50;;;16.22;49.89
60345;BME280;46188;52.324;8.032;2022-11-02T12:54:50;100844.03;;;15.11;53.18
60345;BME280;46188;52.324;8.032;2022-11-02T12:57:22;100846.69;;;14.71;54.15
60345;BME280;46188;52.324;8.032;2022-11-02T12:59:58;100841.38;;;15.09;53.76
60345;BME280;46188;52.324;8.032;2022-11-02T13:02:50;100854.63;;;15.09;53.27
60345;BME280;46188;52.324;8.032;2022-11-02T13:05:26;100842.28;;;14.70;53.98
60345;BME280;46188;52.324;8.032;2022-11-02T13:08:01;100842.25;;;14.85;53.48
60345;BME280;46188;52.324;8.032;2022-11-02T13:10:43;100846.69;;;15.08;53.13
60345;BME280;46188;52.324;8.032;2022-11-02T13:13:36;100844.03;;;15.00;52.91
60345;BME280;46188;52.324;8.032;2022-11-02T13:16:07;100847.56;;;14.74;53.32
60345;BME280;46188;52.324;8.032;2022-11-02T13:21:05;100844.03;;;14.60;53.37
60345;BME280;46188;52.324;8.032;2022-11-02T13:26:06;100844.91;;;14.61;53.91
60345;BME280;46188;52.324;8.032;2022-11-02T13:31:10;100852.81;;;14.27;54.70
60345;BME280;46188;52.324;8.032;2022-11-02T13:33:50;100858.09;;;14.16;55.08
60345;BME280;46188;52.324;8.032;2022-11-02T13:36:17;100858.94;;;14.15;55.25
60345;BME280;46188;52.324;8.032;2022-11-02T13:39:17;100854.47;;;13.98;55.52
60345;BME280;46188;52.324;8.032;2022-11-02T13:45:16;100858.84;;;13.81;56.41
60345;BME280;46188;52.324;8.032;2022-11-02T13:47:49;100853.66;;;14.15;56.00
60345;BME280;46188;52.324;8.032;2022-11-02T13:50:20;100847.47;;;14.17;55.73
60345;BME280;46188;52.324;8.032;2022-11-02T13:53:00;100850.94;;;13.87;56.41
60345;BME280;46188;52.324;8.032;2022-11-02T13:55:46;100835.09;;;14.07;56.31
60345;BME280;46188;52.324;8.032;2022-11-02T13:58:37;100828.94;;;14.25;55.91
60345;BME280;46188;52.324;8.032;2022-11-02T14:01:07;100838.66;;;14.26;55.81
60345;BME280;46188;52.324;8.032;2022-11-02T14:03:54;100850.13;;;14.14;56.18
60345;BME280;46188;52.324;8.032;2022-11-02T14:06:21;100843.91;;;14.01;56.24
60345;BME280;46188;52.324;8.032;2022-11-02T14:08:52;100852.75;;;13.99;56.36
60345;BME280;46188;52.324;8.032;2022-11-02T14:26:59;100842.97;;;13.82;56.29
60345;BME280;46188;52.324;8.032;2022-11-02T14:41:03;100844.78;;;13.97;56.77
60345;BME280;46188;52.324;8.032;2022-11-02T14:46:59;100833.25;;;13.83;56.91
60345;BME280;46188;52.324;8.032;2022-11-02T14:49:30;100830.53;;;13.66;57.34
60345;BME280;46188;52.324;8.032;2022-11-02T14:52:07;100834.94;;;13.64;57.27
60345;BME280;46188;52.324;8.032;2022-11-02T14:54:48;100841.94;;;13.51;57.18
60345;BME280;46188;52.324;8.032;2022-11-02T14:57:41;100839.22;;;13.36;57.53
60345;BME280;46188;52.324;8.032;2022-11-02T15:00:22;100835.59;;;13.24;57.73
60345;BME280;46188;52.324;8.032;2022-11-02T15:02:48;100843.47;;;13.15;57.45
60345;BME280;46188;52.324;8.032;2022-11-02T15:05:25;100849.53;;;12.99;57.93
60345;BME280;46188;52.324;8.032;2022-11-02T15:07:58;100844.19;;;12.94;57.91
60345;BME280;46188;52.324;8.032;2022-11-02T15:26:32;100837.81;;;12.66;59.87